Time;durP1;ratioP1;P1;durP2;ratioP2;P2;SDS_P1;SDS_P2;PMS_P1;PMS_P2;Temp;Humidity;BMP_temperature;BMP_pressure;BME280_temperature;BME280_humidity;BME280_pressure;Samples;Min_cycle;Max_cycle;Signal;HPM_P1;HPM_P2
2021/10/21 00:01:01;;;;;;;1.50;1.00;;;16.40;98.20;;;;;;5012447;28;20463;-76
2021/10/21 00:03:28;;;;;;;1.60;1.00;;;16.40;98.20;;;;;;5037477;28;20459;-77
2021/10/21 00:05:55;;;;;;;1.53;1.00;;;16.50;98.20;;;;;;5010799;28;20464;-79
2021/10/21 00:08:22;;;;;;;1.57;1.00;;;16.40;98.20;;;;;;5042307;28;20801;-77
2021/10/21 00:10:50;;;;;;;1.53;1.00;;;16.40;98.20;;;;;;5017348;28;20787;-79
2021/10/21 00:13:18;;;;;;;1.57;1.00;;;16.40;98.20;;;;;;5037481;28;20461;-76
2021/10/21 00:15:45;;;;;;;1.53;1.00;;;16.40;98.20;;;;;;5018335;28;20478;-78
2021/10/21 00:18:14;;;;;;;1.60;1.00;;;16.40;98.20;;;;;;5021811;28;20854;-77
2021/10/21 00:20:42;;;;;;;1.57;1.00;;;16.40;98.20;;;;;;5026391;28;20459;-77
2021/10/21 00:23:11;;;;;;;1.50;1.00;;;16.40;98.20;;;;;;5024341;28;20871;-79
2021/10/21 00:25:38;;;;;;;1.60;1.00;;;16.40;98.20;;;;;;5019614;28;20863;-76
2021/10/21 00:28:05;;;;;;;1.60;1.00;;;16.40;98.20;;;;;;5029063;28;21008;-76
2021/10/21 00:30:33;;;;;;;1.60;1.00;;;16.40;98.20;;;;;;5021536;28;20824;-77
2021/10/21 00:33:02;;;;;;;1.53;0.93;;;16.30;98.20;;;;;;5008705;28;20852;-77
2021/10/21 00:35:29;;;;;;;1.50;1.03;;;16.30;98.20;;;;;;5022624;28;20464;-77
2021/10/21 00:37:56;;;;;;;1.53;1.00;;;16.30;98.20;;;;;;5027081;28;20487;-78
2021/10/21 00:40:23;;;;;;;1.70;1.40;;;16.30;98.20;;;;;;5023071;28;20483;-75
2021/10/21 00:42:50;;;;;;;1.50;1.00;;;16.20;98.20;;;;;;5027571;28;20488;-76
2021/10/21 00:45:17;;;;;;;1.50;1.00;;;16.20;98.20;;;;;;5024660;28;20462;-79
2021/10/21 00:47:45;;;;;;;1.50;0.97;;;16.20;98.20;;;;;;5031412;28;20478;-80
2021/10/21 00:50:12;;;;;;;1.53;1.00;;;16.10;98.20;;;;;;5018179;28;20468;-80
2021/10/21 00:52:39;;;;;;;1.50;1.00;;;16.10;98.20;;;;;;5001365;28;20491;-80
2021/10/21 00:55:09;;;;;;;1.50;1.00;;;16.00;98.20;;;;;;5026829;28;21036;-79
2021/10/21 00:57:37;;;;;;;1.60;1.20;;;16.00;98.20;;;;;;5025002;28;20490;-77
2021/10/21 01:00:05;;;;;;;1.53;1.00;;;16.00;98.20;;;;;;5017489;28;20621;-79
2021/10/21 01:02:32;;;;;;;1.53;1.00;;;15.90;98.20;;;;;;5027061;28;20494;-79
2021/10/21 01:05:00;;;;;;;1.60;1.10;;;15.90;98.20;;;;;;5010799;28;20841;-80
2021/10/21 01:07:28;;;;;;;1.53;0.90;;;15.90;98.20;;;;;;5009436;28;21049;-77
2021/10/21 01:09:56;;;;;;;1.60;1.00;;;15.90;98.20;;;;;;5027154;28;20588;-77
2021/10/21 01:12:23;;;;;;;1.50;0.90;;;15.90;98.20;;;;;;5009354;28;21083;-77
2021/10/21 01:14:49;;;;;;;1.50;1.00;;;15.90;98.20;;;;;;5023766;28;20467;-77
2021/10/21 01:17:17;;;;;;;1.60;1.00;;;15.90;98.20;;;;;;5017808;28;20956;-77
2021/10/21 01:19:44;;;;;;;1.57;1.00;;;15.90;98.20;;;;;;5023985;28;20483;-77
2021/10/21 01:22:14;;;;;;;1.50;0.93;;;15.80;98.20;;;;;;5021229;28;20486;-77
2021/10/21 01:24:41;;;;;;;1.50;1.00;;;15.80;98.20;;;;;;5026981;28;20459;-77
2021/10/21 01:27:08;;;;;;;1.57;1.00;;;15.80;98.20;;;;;;5013464;28;20911;-77
2021/10/21 01:29:36;;;;;;;1.50;1.00;;;15.80;98.20;;;;;;5018375;28;20623;-77
2021/10/21 01:32:05;;;;;;;1.57;1.00;;;15.70;98.20;;;;;;5021066;28;20576;-78
2021/10/21 01:34:32;;;;;;;1.50;0.97;;;15.70;98.20;;;;;;5027800;28;20466;-76
2021/10/21 01:37:00;;;;;;;1.50;1.00;;;15.60;98.20;;;;;;5022282;28;20490;-76
2021/10/21 01:39:28;;;;;;;1.53;1.00;;;15.60;98.20;;;;;;5024079;28;20490;-77
2021/10/21 01:41:57;;;;;;;1.50;1.00;;;15.50;98.20;;;;;;5018697;28;20882;-77
2021/10/21 01:44:24;;;;;;;1.53;1.00;;;15.50;98.20;;;;;;5028777;28;20475;-76
2021/10/21 01:46:51;;;;;;;1.50;1.00;;;15.50;98.20;;;;;;5021426;28;20493;-77
2021/10/21 01:49:20;;;;;;;1.57;1.00;;;15.40;97.40;;;;;;5019722;28;20463;-77
2021/10/21 01:51:50;;;;;;;1.50;1.00;;;15.40;96.10;;;;;;5014036;28;20486;-76
2021/10/21 01:54:17;;;;;;;1.50;1.00;;;15.30;94.80;;;;;;5018243;28;20481;-76
2021/10/21 01:56:45;;;;;;;1.53;1.00;;;15.20;93.00;;;;;;5022690;28;20517;-77
2021/10/21 01:59:12;;;;;;;1.53;0.90;;;15.10;93.00;;;;;;5028011;28;20497;-77
2021/10/21 02:01:39;;;;;;;1.57;1.00;;;15.10;91.80;;;;;;5019044;28;20486;-78
2021/10/21 02:04:06;;;;;;;1.50;1.00;;;15.00;92.70;;;;;;5032142;28;20486;-77
2021/10/21 02:06:35;;;;;;;1.50;1.00;;;14.90;92.70;;;;;;5010351;28;21093;-78
2021/10/21 02:09:02;;;;;;;1.60;1.10;;;14.90;93.90;;;;;;5029481;28;20665;-78
2021/10/21 02:11:29;;;;;;;1.50;1.00;;;14.80;93.80;;;;;;5018595;28;20490;-78
2021/10/21 02:13:57;;;;;;;1.60;1.10;;;14.80;94.00;;;;;;5031676;28;20965;-77
2021/10/21 02:16:23;;;;;;;1.57;1.00;;;14.80;95.00;;;;;;5013471;28;20978;-78
2021/10/21 02:18:53;;;;;;;1.53;1.00;;;14.70;95.30;;;;;;5026517;28;20463;-79
2021/10/21 02:21:20;;;;;;;1.50;1.00;;;14.70;94.60;;;;;;5012391;28;20504;-78
2021/10/21 02:23:47;;;;;;;1.50;1.00;;;14.70;95.20;;;;;;5021292;28;20463;-78
2021/10/21 02:26:15;;;;;;;1.53;1.00;;;14.70;95.20;;;;;;5014063;28;20838;-77
2021/10/21 02:28:43;;;;;;;1.53;1.00;;;14.70;95.10;;;;;;5037057;28;20566;-77
2021/10/21 02:31:11;;;;;;;1.50;1.00;;;14.60;95.40;;;;;;5013344;28;20486;-78
2021/10/21 02:33:37;;;;;;;1.60;1.00;;;14.60;95.60;;;;;;5035729;28;20845;-78
2021/10/21 02:36:05;;;;;;;1.57;1.00;;;14.60;95.50;;;;;;5015797;28;20467;-77
2021/10/21 02:38:31;;;;;;;1.60;1.10;;;14.60;95.90;;;;;;5037083;28;20471;-78
2021/10/21 02:40:58;;;;;;;1.57;1.10;;;14.50;95.70;;;;;;5012779;28;20494;-78
2021/10/21 02:43:30;;;;;;;1.53;1.00;;;14.50;95.70;;;;;;5017483;28;20455;-78
2021/10/21 02:45:56;;;;;;;1.50;1.00;;;14.50;95.80;;;;;;5007392;28;20466;-75
2021/10/21 02:48:24;;;;;;;1.50;1.03;;;14.40;96.00;;;;;;5022008;28;20564;-77
2021/10/21 02:50:54;;;;;;;1.50;1.00;;;14.40;96.10;;;;;;5016632;28;20452;-77
2021/10/21 02:53:21;;;;;;;1.60;1.10;;;14.40;96.00;;;;;;5035375;28;20470;-78
2021/10/21 02:55:48;;;;;;;1.57;1.00;;;14.40;96.40;;;;;;5011068;28;20479;-78
2021/10/21 02:58:15;;;;;;;1.50;1.00;;;14.40;96.30;;;;;;5019629;28;20491;-78
2021/10/21 03:00:42;;;;;;;1.60;1.20;;;14.40;96.50;;;;;;5021731;28;20722;-75
2021/10/21 03:03:08;;;;;;;1.60;1.10;;;14.40;97.10;;;;;;5028839;28;21005;-78
2021/10/21 03:05:37;;;;;;;1.60;1.10;;;14.40;96.80;;;;;;5019571;28;20805;-77
2021/10/21 03:08:04;;;;;;;1.53;1.00;;;14.40;96.90;;;;;;5024553;28;20490;-76
2021/10/21 03:10:30;;;;;;;1.60;1.00;;;14.30;97.00;;;;;;5022410;28;20555;-77
2021/10/21 03:12:57;;;;;;;1.57;1.03;;;14.30;97.20;;;;;;5010993;28;20899;-79
2021/10/21 03:15:25;;;;;;;1.60;1.00;;;14.30;96.50;;;;;;5016029;28;21017;-76
2021/10/21 03:17:52;;;;;;;1.57;1.10;;;14.30;96.80;;;;;;5009670;28;20483;-76
2021/10/21 03:20:21;;;;;;;1.60;1.10;;;14.30;97.00;;;;;;5019988;28;20641;-74
2021/10/21 03:22:49;;;;;;;1.50;1.00;;;14.30;96.40;;;;;;5024433;28;20739;-78
2021/10/21 03:25:16;;;;;;;1.57;1.00;;;14.30;96.30;;;;;;5026343;28;20499;-77
2021/10/21 03:27:43;;;;;;;1.50;1.00;;;14.40;96.70;;;;;;5028720;28;20486;-78
2021/10/21 03:30:11;;;;;;;1.60;1.10;;;14.40;96.30;;;;;;5022801;28;20491;-76
2021/10/21 03:32:38;;;;;;;1.60;1.10;;;14.40;96.40;;;;;;5026293;28;20916;-77
2021/10/21 03:35:05;;;;;;;1.57;1.00;;;14.40;95.90;;;;;;5020936;28;20463;-78
2021/10/21 03:37:32;;;;;;;1.60;1.00;;;14.40;96.10;;;;;;5023144;28;20496;-76
2021/10/21 03:40:04;;;;;;;1.53;1.00;;;14.40;96.20;;;;;;5019888;28;20487;-78
2021/10/21 03:42:31;;;;;;;1.60;1.10;;;14.40;96.00;;;;;;5024950;28;20817;-80
2021/10/21 03:44:58;;;;;;;1.57;1.00;;;14.40;96.00;;;;;;5022622;28;20470;-77
2021/10/21 03:47:25;;;;;;;1.60;1.00;;;14.40;95.70;;;;;;5028109;28;20490;-78
2021/10/21 03:49:52;;;;;;;1.60;1.00;;;14.40;95.30;;;;;;5024204;28;20459;-78
2021/10/21 03:52:33;;;;;;;1.60;1.10;;;14.40;95.60;;;;;;5029811;28;20486;-77
2021/10/21 03:55:07;;;;;;;1.57;1.03;;;14.40;95.60;;;;;;5026678;28;21124;-78
2021/10/21 03:57:34;;;;;;;1.60;1.10;;;14.30;95.00;;;;;;5023456;28;20483;-78
2021/10/21 04:00:01;;;;;;;1.53;1.00;;;14.40;95.60;;;;;;5023281;28;20495;-78
2021/10/21 04:02:28;;;;;;;1.60;1.00;;;14.30;95.20;;;;;;5025507;28;20565;-78
2021/10/21 04:04:54;;;;;;;1.60;1.00;;;14.30;95.60;;;;;;5029160;28;20459;-77
2021/10/21 04:07:21;;;;;;;1.50;1.00;;;14.30;95.40;;;;;;5021618;28;20853;-78
2021/10/21 04:09:48;;;;;;;1.60;1.07;;;14.30;95.60;;;;;;5026244;28;20459;-78
2021/10/21 04:12:16;;;;;;;1.57;1.00;;;14.30;95.70;;;;;;5008327;28;20871;-78
2021/10/21 04:14:43;;;;;;;1.60;1.10;;;14.30;96.10;;;;;;5023229;28;20458;-78
2021/10/21 04:17:11;;;;;;;1.53;1.00;;;14.30;96.50;;;;;;5014818;28;20490;-79
2021/10/21 04:19:37;;;;;;;1.53;1.00;;;14.30;96.30;;;;;;5020439;28;20474;-78
2021/10/21 04:22:04;;;;;;;1.60;1.10;;;14.20;96.30;;;;;;5023156;28;20493;-77
2021/10/21 04:24:31;;;;;;;1.60;1.00;;;14.20;96.50;;;;;;5022317;28;20811;-78
2021/10/21 04:27:00;;;;;;;1.50;1.00;;;14.20;96.70;;;;;;5018006;28;20482;-77
2021/10/21 04:29:32;;;;;;;1.50;1.00;;;14.20;96.20;;;;;;5032578;28;20470;-79
2021/10/21 04:32:01;;;;;;;1.53;1.03;;;14.20;96.50;;;;;;5022967;28;20482;-78
2021/10/21 04:34:30;;;;;;;1.57;1.00;;;14.20;96.40;;;;;;5025625;28;20470;-78
2021/10/21 04:36:59;;;;;;;1.53;1.00;;;14.20;96.70;;;;;;5022972;28;20494;-79
2021/10/21 04:39:26;;;;;;;1.57;1.00;;;14.20;96.80;;;;;;5028584;28;20471;-78
2021/10/21 04:41:52;;;;;;;1.60;1.10;;;14.20;96.90;;;;;;5020710;28;20474;-76
2021/10/21 04:44:19;;;;;;;1.53;1.00;;;14.20;96.80;;;;;;5026222;28;20466;-77
2021/10/21 04:46:54;;;;;;;1.53;1.00;;;14.20;97.40;;;;;;5022296;28;20493;-78
2021/10/21 04:49:21;;;;;;;1.57;1.00;;;14.10;97.70;;;;;;5019523;28;20567;-78
2021/10/21 04:51:56;;;;;;;1.57;1.10;;;14.10;98.20;;;;;;5011730;28;20491;-77
2021/10/21 04:54:32;;;;;;;1.57;1.00;;;14.10;98.20;;;;;;5021072;28;20463;-76
2021/10/21 05:00:10;;;;;;;;;;;;;;;;;;;;;
2021/10/21 05:03:33;;;;;;;1.50;1.00;;;13.90;98.20;;;;;;5008448;28;20525;-77
2021/10/21 05:20:17;;;;;;;1.50;1.00;;;13.60;98.20;;;;;;4888890;29;20469;-75
2021/10/21 05:26:18;;;;;;;1.57;1.07;;;13.40;98.20;;;;;;4843892;28;20475;-77
2021/10/21 05:29:22;;;;;;;1.57;1.00;;;13.40;98.20;;;;;;4970657;28;20466;-76
2021/10/21 05:31:55;;;;;;;1.57;1.00;;;13.40;98.20;;;;;;4951767;28;20470;-77
2021/10/21 05:34:30;;;;;;;1.60;1.00;;;13.30;98.20;;;;;;4961160;28;20458;-76
2021/10/21 05:36:57;;;;;;;1.60;1.17;;;13.30;98.20;;;;;;5019914;28;20485;-76
2021/10/21 05:39:27;;;;;;;1.60;1.07;;;13.20;98.20;;;;;;5034752;28;20459;-75
2021/10/21 05:42:07;;;;;;;1.53;1.00;;;13.20;98.20;;;;;;5029184;28;20555;-77
2021/10/21 05:47:22;;;;;;;1.60;1.00;;;13.10;98.20;;;;;;5027777;28;20811;-78
2021/10/21 05:49:59;;;;;;;1.57;1.00;;;13.10;98.20;;;;;;5024225;28;20996;-77
2021/10/21 05:52:30;;;;;;;1.53;1.00;;;13.00;98.20;;;;;;5031571;28;20509;-76
2021/10/21 05:55:01;;;;;;;1.57;1.00;;;13.00;98.20;;;;;;5034573;28;20463;-76
2021/10/21 05:57:29;;;;;;;1.60;1.10;;;12.90;98.20;;;;;;5026443;28;20571;-77
2021/10/21 05:59:56;;;;;;;1.57;1.00;;;12.80;98.20;;;;;;5029946;28;20459;-76
2021/10/21 06:02:23;;;;;;;1.57;1.10;;;12.60;98.20;;;;;;5020628;28;20574;-76
2021/10/21 06:04:50;;;;;;;1.53;1.10;;;12.50;98.20;;;;;;5021999;28;20518;-77
2021/10/21 06:07:18;;;;;;;1.60;1.03;;;12.50;98.20;;;;;;5018785;28;20483;-75
2021/10/21 06:09:45;;;;;;;1.60;1.10;;;12.40;98.20;;;;;;5028110;28;20467;-76
2021/10/21 06:12:12;;;;;;;1.53;1.00;;;12.30;98.20;;;;;;5026228;28;20505;-78
2021/10/21 06:14:40;;;;;;;1.57;1.07;;;12.20;98.20;;;;;;5028945;28;20471;-77
2021/10/21 06:17:07;;;;;;;1.53;1.00;;;12.00;98.20;;;;;;5029992;28;20516;-77
2021/10/21 06:19:34;;;;;;;1.53;1.00;;;11.80;98.20;;;;;;5034188;28;20994;-74
2021/10/21 06:22:05;;;;;;;1.60;1.00;;;11.70;98.20;;;;;;5029040;28;20482;-76
2021/10/21 06:24:32;;;;;;;1.57;1.10;;;11.60;98.20;;;;;;5031544;28;20704;-74
2021/10/21 06:26:59;;;;;;;1.53;1.00;;;11.50;98.20;;;;;;5028007;28;20903;-75
2021/10/21 06:29:28;;;;;;;1.57;1.10;;;11.50;98.20;;;;;;5036813;28;20463;-77
2021/10/21 06:31:57;;;;;;;1.60;1.10;;;11.50;98.20;;;;;;5028674;28;20496;-77
2021/10/21 06:34:29;;;;;;;1.60;1.10;;;11.40;98.20;;;;;;5038160;28;20471;-78
2021/10/21 06:37:04;;;;;;;3.40;2.53;;;11.40;98.20;;;;;;5031394;28;20486;-77
2021/10/21 06:39:38;;;;;;;1.57;1.10;;;11.30;98.20;;;;;;5021787;28;20488;-75
2021/10/21 06:42:26;;;;;;;1.50;1.10;;;11.30;98.20;;;;;;5025853;28;20536;-76
2021/10/21 06:45:10;;;;;;;1.50;1.10;;;11.20;98.20;;;;;;5028312;28;20994;-77
2021/10/21 06:47:47;;;;;;;1.60;1.10;;;11.20;98.20;;;;;;5027618;28;20510;-77
2021/10/21 06:50:23;;;;;;;1.60;1.20;;;11.20;98.20;;;;;;5025573;28;20562;-77
2021/10/21 06:52:50;;;;;;;1.60;1.10;;;11.20;98.20;;;;;;5030264;28;20616;-75
2021/10/21 06:55:21;;;;;;;1.60;1.10;;;11.10;98.20;;;;;;5034149;28;20467;-78
2021/10/21 06:57:54;;;;;;;1.53;1.10;;;11.10;98.20;;;;;;5017768;28;20516;-78
2021/10/21 07:00:24;;;;;;;1.60;1.10;;;11.20;98.20;;;;;;5031387;28;20553;-77
2021/10/21 07:02:59;;;;;;;1.60;1.20;;;11.10;98.20;;;;;;5036295;28;20479;-77
2021/10/21 07:05:28;;;;;;;1.60;1.10;;;11.10;98.20;;;;;;5025798;28;20520;-77
2021/10/21 07:07:56;;;;;;;1.60;1.10;;;11.10;98.20;;;;;;5033738;28;20490;-76
2021/10/21 07:10:23;;;;;;;1.60;1.10;;;11.00;98.20;;;;;;5023051;28;20470;-75
2021/10/21 07:12:50;;;;;;;1.60;1.10;;;11.00;98.20;;;;;;5037827;28;20545;-77
2021/10/21 07:15:20;;;;;;;1.60;1.10;;;11.00;98.20;;;;;;5020817;28;20495;-76
2021/10/21 07:17:50;;;;;;;1.60;1.10;;;11.00;98.20;;;;;;5028001;28;21008;-75
2021/10/21 07:20:18;;;;;;;1.60;1.10;;;11.00;98.20;;;;;;5019587;28;20459;-75
2021/10/21 07:22:46;;;;;;;1.60;1.10;;;11.00;98.20;;;;;;5032219;28;20478;-75
2021/10/21 07:25:13;;;;;;;1.60;1.20;;;11.00;98.20;;;;;;5024035;28;20480;-75
2021/10/21 07:27:41;;;;;;;1.60;1.10;;;11.00;98.20;;;;;;5032659;28;20494;-76
2021/10/21 07:30:12;;;;;;;1.60;1.10;;;11.00;98.20;;;;;;5025339;28;20456;-73
2021/10/21 07:32:40;;;;;;;1.60;1.10;;;11.00;98.20;;;;;;5032537;28;20973;-75
2021/10/21 07:35:08;;;;;;;1.60;1.10;;;11.00;98.20;;;;;;5025870;28;20503;-77
2021/10/21 07:37:36;;;;;;;1.60;1.20;;;11.00;98.20;;;;;;5016181;28;20594;-74
2021/10/21 07:40:06;;;;;;;1.57;1.10;;;11.00;98.20;;;;;;5022344;28;21002;-76
2021/10/21 07:42:34;;;;;;;1.60;1.00;;;11.00;98.20;;;;;;5029556;28;20482;-77
2021/10/21 07:45:01;;;;;;;1.60;1.10;;;11.00;98.20;;;;;;5019086;28;20462;-77
2021/10/21 07:47:28;;;;;;;1.60;1.17;;;11.00;98.20;;;;;;5009625;28;20924;-75
2021/10/21 07:49:58;;;;;;;1.57;1.10;;;10.90;98.20;;;;;;5025508;28;20463;-74
2021/10/21 07:52:25;;;;;;;1.60;1.20;;;11.00;98.20;;;;;;5015354;28;20475;-75
2021/10/21 07:54:54;;;;;;;1.60;1.20;;;10.90;98.20;;;;;;5022483;28;20513;-74
2021/10/21 07:57:22;;;;;;;1.60;1.20;;;11.00;98.20;;;;;;5011892;28;20926;-74
2021/10/21 07:59:49;;;;;;;1.60;1.10;;;11.00;98.20;;;;;;5017973;28;20468;-74
2021/10/21 08:02:18;;;;;;;1.60;1.10;;;11.00;98.20;;;;;;5029413;28;20510;-74
2021/10/21 08:04:45;;;;;;;1.60;1.10;;;11.00;98.20;;;;;;5023012;28;20464;-74
2021/10/21 08:07:12;;;;;;;1.50;1.10;;;11.00;98.20;;;;;;5012547;28;20478;-74
2021/10/21 08:09:39;;;;;;;1.60;1.10;;;11.00;98.20;;;;;;5026090;28;20467;-73
2021/10/21 08:12:08;;;;;;;1.60;1.20;;;11.00;98.20;;;;;;5018947;28;20482;-73
2021/10/21 08:14:35;;;;;;;1.60;1.20;;;11.10;98.20;;;;;;5021709;28;20497;-72
2021/10/21 08:17:02;;;;;;;1.60;1.10;;;11.10;98.20;;;;;;5016688;28;20482;-73
2021/10/21 08:19:30;;;;;;;1.60;1.10;;;11.20;98.20;;;;;;5024093;28;20467;-73
2021/10/21 08:21:57;;;;;;;1.60;1.10;;;11.20;98.20;;;;;;5006638;28;20482;-73
2021/10/21 08:24:24;;;;;;;1.57;1.00;;;11.30;98.20;;;;;;5019268;28;20528;-73
2021/10/21 08:26:51;;;;;;;1.60;1.10;;;11.30;98.20;;;;;;5020357;28;20540;-73
2021/10/21 08:29:23;;;;;;;1.60;1.10;;;11.30;98.20;;;;;;5027662;28;20475;-72
2021/10/21 08:31:50;;;;;;;1.60;1.10;;;11.40;98.20;;;;;;5024154;28;20478;-74
2021/10/21 08:34:17;;;;;;;1.60;1.20;;;11.50;98.20;;;;;;5021884;28;20466;-73
2021/10/21 08:36:44;;;;;;;1.57;1.10;;;11.60;98.20;;;;;;5021024;28;20502;-73
2021/10/21 08:39:11;;;;;;;1.60;1.20;;;11.60;98.20;;;;;;5024291;28;20513;-73
2021/10/21 08:41:39;;;;;;;1.50;1.00;;;11.70;98.20;;;;;;5018641;28;20494;-73
2021/10/21 08:44:07;;;;;;;1.60;1.20;;;11.80;98.20;;;;;;5024516;28;20451;-73
2021/10/21 08:46:35;;;;;;;1.60;1.10;;;11.80;98.20;;;;;;5012236;28;20494;-73
2021/10/21 08:49:04;;;;;;;1.60;1.30;;;11.90;98.20;;;;;;5028683;28;20463;-74
2021/10/21 08:51:32;;;;;;;1.60;1.10;;;11.90;98.20;;;;;;5019915;28;20921;-77
2021/10/21 08:53:59;;;;;;;1.57;1.10;;;12.10;98.20;;;;;;5024275;28;20838;-73
2021/10/21 08:56:27;;;;;;;1.60;1.10;;;12.30;98.20;;;;;;5011572;28;20495;-73
2021/10/21 08:58:55;;;;;;;1.57;1.10;;;12.40;98.20;;;;;;5029697;28;20471;-74
2021/10/21 09:01:31;;;;;;;1.57;1.10;;;12.50;98.20;;;;;;5008275;28;20486;-74
2021/10/21 09:04:16;;;;;;;1.60;1.00;;;12.70;98.20;;;;;;5037399;28;20859;-76
2021/10/21 09:07:55;;;;;;;1.60;1.10;;;13.00;98.20;;;;;;5021637;28;20493;-74
2021/10/21 09:09:43;;;;;;;1.60;1.10;;;13.20;98.20;;;;;;5021648;28;20853;-76
2021/10/21 09:12:12;;;;;;;1.57;1.00;;;13.30;98.20;;;;;;5027626;28;20502;-79
2021/10/21 09:14:43;;;;;;;1.57;1.00;;;13.30;98.20;;;;;;5029931;28;20549;-75
2021/10/21 09:17:12;;;;;;;1.60;1.00;;;13.30;98.20;;;;;;5014516;28;20495;-75
2021/10/21 09:19:42;;;;;;;1.60;1.10;;;13.30;98.20;;;;;;5017894;28;20487;-74
2021/10/21 09:22:22;;;;;;;1.60;1.10;;;13.20;98.20;;;;;;5023405;28;20484;-74
2021/10/21 09:24:49;;;;;;;1.57;1.00;;;13.30;98.20;;;;;;5019119;28;20467;-75
2021/10/21 09:27:18;;;;;;;1.57;1.00;;;13.20;98.20;;;;;;5024004;28;20486;-74
2021/10/21 09:29:48;;;;;;;1.57;1.00;;;13.10;98.20;;;;;;5026655;28;20726;-74
2021/10/21 09:32:17;;;;;;;1.60;1.10;;;13.10;98.20;;;;;;5027600;28;20956;-73
2021/10/21 09:34:52;;;;;;;1.53;1.00;;;13.10;98.20;;;;;;5026260;28;20526;-74
2021/10/21 09:37:21;;;;;;;1.53;1.10;;;13.10;98.20;;;;;;5025926;28;20520;-74
2021/10/21 09:39:50;;;;;;;1.53;1.00;;;13.00;98.20;;;;;;5027036;28;20463;-73
2021/10/21 09:42:18;;;;;;;1.53;1.00;;;13.00;98.20;;;;;;5005632;28;20993;-73
2021/10/21 09:44:45;;;;;;;1.57;1.00;;;13.00;98.20;;;;;;5020613;28;20478;-76
2021/10/21 09:47:17;;;;;;;1.53;1.00;;;13.00;98.20;;;;;;5020340;28;20494;-76
2021/10/21 09:49:47;;;;;;;1.57;1.10;;;13.00;98.20;;;;;;5021137;28;20467;-75
2021/10/21 09:52:20;;;;;;;1.53;1.00;;;13.00;98.20;;;;;;5021267;28;20490;-77
2021/10/21 09:54:47;;;;;;;1.60;1.00;;;13.10;97.80;;;;;;5022315;28;20463;-76
2021/10/21 09:57:17;;;;;;;1.53;1.00;;;13.10;98.20;;;;;;5017429;28;20482;-77
2021/10/21 09:59:46;;;;;;;1.50;1.00;;;13.20;96.90;;;;;;5020328;28;20598;-77
2021/10/21 10:02:17;;;;;;;1.60;1.10;;;13.30;97.40;;;;;;5021527;28;20493;-78
2021/10/21 10:04:49;;;;;;;2.50;2.30;;;13.30;97.10;;;;;;5023661;28;20478;-79
2021/10/21 10:07:18;;;;;;;1.57;1.00;;;13.30;97.20;;;;;;5021878;28;20490;-79
2021/10/21 10:09:47;;;;;;;1.57;1.00;;;13.30;96.70;;;;;;5024310;28;20922;-78
2021/10/21 10:12:14;;;;;;;1.60;1.00;;;13.20;97.40;;;;;;5025063;28;20902;-77
2021/10/21 10:14:43;;;;;;;1.60;1.10;;;13.20;97.00;;;;;;5021831;28;20487;-77
2021/10/21 10:17:14;;;;;;;1.60;1.00;;;13.30;96.80;;;;;;5026108;28;20843;-78
2021/10/21 10:19:45;;;;;;;1.53;1.00;;;13.30;95.50;;;;;;5019209;28;20471;-77
2021/10/21 10:22:16;;;;;;;1.60;1.10;;;13.30;96.40;;;;;;5017508;28;20488;-75
2021/10/21 10:24:44;;;;;;;1.60;1.10;;;13.30;96.60;;;;;;5025525;28;20459;-78
2021/10/21 10:27:23;;;;;;;1.60;1.10;;;13.30;96.70;;;;;;5025915;28;20482;-75
2021/10/21 10:29:50;;;;;;;1.60;1.10;;;13.40;96.90;;;;;;5019379;28;20471;-75
2021/10/21 10:32:35;;;;;;;1.60;1.10;;;13.40;97.80;;;;;;5023573;28;20597;-77
2021/10/21 10:35:04;;;;;;;1.50;1.00;;;13.50;98.20;;;;;;5017386;28;20459;-76
2021/10/21 10:37:58;;;;;;;1.53;1.00;;;13.50;98.20;;;;;;5023254;28;20512;-76
2021/10/21 10:40:39;;;;;;;1.60;1.00;;;13.60;98.20;;;;;;4995043;28;20471;-77
2021/10/21 10:43:07;;;;;;;1.60;1.00;;;13.60;98.20;;;;;;5025951;28;20482;-76
2021/10/21 10:45:42;;;;;;;1.50;1.10;;;13.50;98.20;;;;;;5018644;28;20840;-75
2021/10/21 10:48:09;;;;;;;1.50;1.00;;;13.50;98.20;;;;;;5033025;28;20482;-78
2021/10/21 10:50:56;;;;;;;1.53;1.00;;;13.40;98.20;;;;;;5021948;28;20470;-78
2021/10/21 10:53:52;;;;;;;1.57;1.03;;;13.40;98.20;;;;;;5000962;28;20630;-79
2021/10/21 10:56:46;;;;;;;1.60;1.07;;;13.40;98.20;;;;;;5013746;28;20547;-76
2021/10/21 10:59:18;;;;;;;1.53;1.00;;;13.30;98.20;;;;;;4995501;28;20648;-76
2021/10/21 11:01:45;;;;;;;1.50;1.00;;;13.30;98.20;;;;;;5015744;28;20481;-78
2021/10/21 11:04:12;;;;;;;1.57;1.00;;;13.40;98.20;;;;;;5028650;28;20470;-77
2021/10/21 11:06:38;;;;;;;1.60;1.10;;;13.40;98.20;;;;;;5016323;28;20491;-77
2021/10/21 11:09:06;;;;;;;1.53;1.00;;;13.40;98.20;;;;;;5025420;28;20467;-78
2021/10/21 11:11:51;;;;;;;1.53;1.00;;;13.40;98.20;;;;;;5016823;28;20927;-78
2021/10/21 11:14:19;;;;;;;1.53;1.10;;;13.40;98.20;;;;;;5024148;28;20527;-77
2021/10/21 11:16:49;;;;;;;1.57;1.10;;;13.40;98.20;;;;;;5020937;28;20504;-79
2021/10/21 11:19:47;;;;;;;1.57;1.10;;;13.40;98.20;;;;;;5029359;28;20470;-75
2021/10/21 11:22:38;;;;;;;1.50;1.00;;;13.30;98.20;;;;;;5019776;28;20494;-77
2021/10/21 11:25:07;;;;;;;1.53;1.00;;;13.30;98.20;;;;;;5019943;28;20466;-77
2021/10/21 11:27:35;;;;;;;1.57;1.00;;;13.20;98.20;;;;;;5026314;28;20490;-78
2021/10/21 11:30:06;;;;;;;1.53;1.03;;;12.90;98.20;;;;;;5021996;28;20857;-77
2021/10/21 11:32:35;;;;;;;1.57;1.03;;;12.60;98.20;;;;;;5030191;28;20467;-78
2021/10/21 11:35:08;;;;;;;1.53;1.00;;;12.30;98.20;;;;;;5023945;28;20469;-79
2021/10/21 11:37:43;;;;;;;1.57;1.00;;;12.00;98.20;;;;;;5020828;28;20553;-76
2021/10/21 11:40:12;;;;;;;1.60;1.10;;;11.70;98.20;;;;;;5012611;28;20573;-79
2021/10/21 11:42:39;;;;;;;1.50;1.10;;;11.40;98.20;;;;;;5005363;28;20482;-77
2021/10/21 11:45:08;;;;;;;1.57;1.10;;;11.20;98.20;;;;;;5019625;28;20467;-77
2021/10/21 11:47:36;;;;;;;1.60;1.10;;;11.10;98.20;;;;;;5021244;28;21024;-80
2021/10/21 11:50:06;;;;;;;1.53;1.00;;;11.00;98.20;;;;;;5016031;28;20475;-77
2021/10/21 11:52:37;;;;;;;1.60;1.10;;;11.00;98.20;;;;;;5019848;28;20493;-77
2021/10/21 11:55:05;;;;;;;1.50;1.10;;;11.00;98.20;;;;;;5014244;28;20474;-78
2021/10/21 11:57:33;;;;;;;1.60;1.30;;;11.00;98.20;;;;;;5020074;28;20489;-76
2021/10/21 12:00:01;;;;;;;1.60;1.10;;;11.00;98.20;;;;;;5020240;28;20646;-78
2021/10/21 12:02:30;;;;;;;1.57;1.00;;;11.00;98.20;;;;;;5022458;28;20474;-77
2021/10/21 12:04:57;;;;;;;1.60;1.10;;;11.00;98.20;;;;;;5017278;28;20845;-76
2021/10/21 12:07:25;;;;;;;1.57;1.10;;;11.00;98.20;;;;;;5017832;28;20497;-77
2021/10/21 12:09:53;;;;;;;1.50;1.10;;;11.10;98.20;;;;;;5016442;28;20468;-75
2021/10/21 12:12:19;;;;;;;1.53;1.10;;;11.10;98.20;;;;;;5022412;28;20533;-77
2021/10/21 12:14:47;;;;;;;1.60;1.10;;;11.10;98.20;;;;;;5016938;28;20495;-75
2021/10/21 12:17:14;;;;;;;1.53;1.10;;;11.10;98.20;;;;;;5023620;28;20497;-75
2021/10/21 12:19:43;;;;;;;1.53;1.10;;;11.20;98.20;;;;;;5018294;28;20472;-75
2021/10/21 12:22:15;;;;;;;1.60;1.17;;;11.20;98.20;;;;;;5023410;28;20482;-77
2021/10/21 12:24:45;;;;;;;1.60;1.13;;;11.20;98.20;;;;;;5015150;28;20475;-75
2021/10/21 12:27:19;;;;;;;1.60;1.17;;;11.20;98.20;;;;;;5010071;28;20503;-77
2021/10/21 12:29:46;;;;;;;1.60;1.20;;;11.30;98.20;;;;;;5018362;28;20464;-76
2021/10/21 12:32:15;;;;;;;1.57;1.10;;;11.40;98.20;;;;;;5019977;28;20486;-78
2021/10/21 12:34:44;;;;;;;1.57;1.10;;;11.50;98.20;;;;;;5017237;28;20465;-77
2021/10/21 12:37:14;;;;;;;1.57;1.10;;;11.50;98.20;;;;;;5023441;28;20486;-76
2021/10/21 12:39:40;;;;;;;1.60;1.10;;;11.60;98.20;;;;;;5021069;28;21068;-76
2021/10/21 12:42:11;;;;;;;1.57;1.00;;;11.60;98.20;;;;;;5015655;28;20482;-76
2021/10/21 12:44:39;;;;;;;1.60;1.10;;;11.60;98.20;;;;;;5016499;28;20467;-77
2021/10/21 12:47:12;;;;;;;1.57;1.00;;;11.60;98.20;;;;;;5020282;28;20494;-77
2021/10/21 12:49:39;;;;;;;1.50;1.00;;;11.50;98.20;;;;;;5021728;28;20466;-77
2021/10/21 12:52:07;;;;;;;1.57;1.10;;;11.50;98.20;;;;;;5020199;28;20486;-78
2021/10/21 12:54:36;;;;;;;1.60;1.10;;;11.50;98.20;;;;;;5023109;28;20472;-77
2021/10/21 12:57:04;;;;;;;1.53;1.07;;;11.40;98.20;;;;;;5013930;28;20600;-76
2021/10/21 12:59:33;;;;;;;1.53;1.10;;;11.40;98.20;;;;;;5021365;28;20477;-77
2021/10/21 13:02:02;;;;;;;1.57;1.10;;;11.40;98.20;;;;;;5003070;28;20489;-77
2021/10/21 13:04:44;;;;;;;1.53;1.10;;;11.30;98.20;;;;;;5012819;28;20491;-76
2021/10/21 13:07:12;;;;;;;1.57;1.10;;;11.20;98.20;;;;;;5018913;28;20497;-77
2021/10/21 13:09:40;;;;;;;1.50;1.00;;;11.20;98.20;;;;;;5018462;28;20838;-77
2021/10/21 13:12:07;;;;;;;1.60;1.10;;;11.20;98.20;;;;;;5022407;28;20515;-77
2021/10/21 13:14:38;;;;;;;1.53;1.00;;;11.10;98.20;;;;;;5018295;28;20474;-78
2021/10/21 13:17:06;;;;;;;1.60;1.10;;;11.00;98.20;;;;;;5018777;28;20505;-77
2021/10/21 13:19:33;;;;;;;1.57;1.10;;;10.90;98.20;;;;;;5028456;28;20498;-79
2021/10/21 13:22:00;;;;;;;1.50;1.10;;;10.90;98.20;;;;;;5015403;28;20539;-78
2021/10/21 13:24:27;;;;;;;1.60;1.20;;;10.90;98.20;;;;;;5014831;28;20867;-77